sensor_id;sensor_type;location;lat;lon;timestamp;P1;durP1;ratioP1;P2;durP2;ratioP2
3700;SDS011;1866;48.374;10.766;2023-01-23T00:01:23;106.40;;;15.63;;
3700;SDS011;1866;48.374;10.766;2023-01-23T00:03:52;114.85;;;17.42;;
3700;SDS011;1866;48.374;10.766;2023-01-23T00:06:19;125.82;;;19.27;;
3700;SDS011;1866;48.374;10.766;2023-01-23T00:08:47;111.63;;;16.67;;
3700;SDS011;1866;48.374;10.766;2023-01-23T00:11:16;115.95;;;17.92;;
3700;SDS011;1866;48.374;10.766;2023-01-23T00:13:44;106.28;;;16.50;;
3700;SDS011;1866;48.374;10.766;2023-01-23T00:16:12;110.75;;;16.63;;
3700;SDS011;1866;48.374;10.766;2023-01-23T00:18:40;104.88;;;14.90;;
3700;SDS011;1866;48.374;10.766;2023-01-23T00:21:08;106.13;;;16.85;;
3700;SDS011;1866;48.374;10.766;2023-01-23T00:23:36;106.70;;;15.52;;
3700;SDS011;1866;48.374;10.766;2023-01-23T00:26:03;103.40;;;14.70;;
3700;SDS011;1866;48.374;10.766;2023-01-23T00:28:32;107.35;;;15.57;;
3700;SDS011;1866;48.374;10.766;2023-01-23T00:31:03;107.32;;;15.30;;
3700;SDS011;1866;48.374;10.766;2023-01-23T00:33:30;103.70;;;15.45;;
3700;SDS011;1866;48.374;10.766;2023-01-23T00:35:57;117.45;;;17.10;;
3700;SDS011;1866;48.374;10.766;2023-01-23T00:38:25;106.85;;;15.20;;
3700;SDS011;1866;48.374;10.766;2023-01-23T00:40:52;101.65;;;14.32;;
3700;SDS011;1866;48.374;10.766;2023-01-23T00:43:20;104.60;;;15.95;;
3700;SDS011;1866;48.374;10.766;2023-01-23T00:45:49;107.07;;;16.33;;
3700;SDS011;1866;48.374;10.766;2023-01-23T00:48:16;106.68;;;16.40;;
3700;SDS011;1866;48.374;10.766;2023-01-23T00:50:43;104.60;;;15.48;;
3700;SDS011;1866;48.374;10.766;2023-01-23T00:53:10;106.20;;;16.30;;
3700;SDS011;1866;48.374;10.766;2023-01-23T00:55:38;105.47;;;15.90;;
3700;SDS011;1866;48.374;10.766;2023-01-23T00:58:05;109.60;;;17.40;;
3700;SDS011;1866;48.374;10.766;2023-01-23T01:00:33;108.57;;;17.33;;
3700;SDS011;1866;48.374;10.766;2023-01-23T01:03:01;107.90;;;16.23;;
3700;SDS011;1866;48.374;10.766;2023-01-23T01:05:28;113.68;;;19.67;;
3700;SDS011;1866;48.374;10.766;2023-01-23T01:07:55;116.22;;;18.45;;
3700;SDS011;1866;48.374;10.766;2023-01-23T01:10:22;106.10;;;17.00;;
3700;SDS011;1866;48.374;10.766;2023-01-23T01:12:53;109.40;;;17.15;;
3700;SDS011;1866;48.374;10.766;2023-01-23T01:15:20;107.55;;;17.10;;
3700;SDS011;1866;48.374;10.766;2023-01-23T01:17:47;111.50;;;18.02;;
3700;SDS011;1866;48.374;10.766;2023-01-23T01:20:15;113.10;;;17.88;;
3700;SDS011;1866;48.374;10.766;2023-01-23T01:22:42;115.35;;;19.15;;
3700;SDS011;1866;48.374;10.766;2023-01-23T01:25:09;123.43;;;18.35;;
3700;SDS011;1866;48.374;10.766;2023-01-23T01:27:36;110.70;;;17.58;;
3700;SDS011;1866;48.374;10.766;2023-01-23T01:30:03;115.07;;;18.17;;
3700;SDS011;1866;48.374;10.766;2023-01-23T01:32:30;122.78;;;18.42;;
3700;SDS011;1866;48.374;10.766;2023-01-23T01:35:01;109.00;;;17.50;;
3700;SDS011;1866;48.374;10.766;2023-01-23T01:37:29;112.13;;;18.15;;
3700;SDS011;1866;48.374;10.766;2023-01-23T01:39:58;116.45;;;20.88;;
3700;SDS011;1866;48.374;10.766;2023-01-23T01:42:25;112.80;;;18.27;;
3700;SDS011;1866;48.374;10.766;2023-01-23T01:44:54;116.22;;;18.88;;
3700;SDS011;1866;48.374;10.766;2023-01-23T01:47:22;114.78;;;19.02;;
3700;SDS011;1866;48.374;10.766;2023-01-23T01:49:50;120.10;;;20.52;;
3700;SDS011;1866;48.374;10.766;2023-01-23T01:52:21;112.75;;;20.95;;
3700;SDS011;1866;48.374;10.766;2023-01-23T01:54:51;112.93;;;20.10;;
3700;SDS011;1866;48.374;10.766;2023-01-23T01:57:21;117.00;;;20.27;;
3700;SDS011;1866;48.374;10.766;2023-01-23T01:59:52;121.38;;;19.25;;
3700;SDS011;1866;48.374;10.766;2023-01-23T02:02:23;116.28;;;19.70;;
3700;SDS011;1866;48.374;10.766;2023-01-23T02:04:54;111.20;;;17.98;;
3700;SDS011;1866;48.374;10.766;2023-01-23T02:07:26;111.50;;;20.08;;
3700;SDS011;1866;48.374;10.766;2023-01-23T02:10:00;110.88;;;19.25;;
3700;SDS011;1866;48.374;10.766;2023-01-23T02:12:29;118.82;;;18.42;;
3700;SDS011;1866;48.374;10.766;2023-01-23T02:14:59;116.03;;;19.77;;
3700;SDS011;1866;48.374;10.766;2023-01-23T02:17:26;109.75;;;18.92;;
3700;SDS011;1866;48.374;10.766;2023-01-23T02:19:55;110.70;;;18.73;;
3700;SDS011;1866;48.374;10.766;2023-01-23T02:22:31;115.20;;;18.20;;
3700;SDS011;1866;48.374;10.766;2023-01-23T02:25:10;115.07;;;18.50;;
3700;SDS011;1866;48.374;10.766;2023-01-23T02:27:45;113.45;;;17.45;;
3700;SDS011;1866;48.374;10.766;2023-01-23T02:30:12;111.47;;;16.70;;
3700;SDS011;1866;48.374;10.766;2023-01-23T02:32:40;109.00;;;16.42;;
3700;SDS011;1866;48.374;10.766;2023-01-23T02:35:09;116.47;;;17.92;;
3700;SDS011;1866;48.374;10.766;2023-01-23T02:37:41;106.57;;;18.50;;
3700;SDS011;1866;48.374;10.766;2023-01-23T02:40:11;109.85;;;17.15;;
3700;SDS011;1866;48.374;10.766;2023-01-23T02:42:39;108.10;;;17.25;;
3700;SDS011;1866;48.374;10.766;2023-01-23T02:45:10;106.70;;;16.25;;
3700;SDS011;1866;48.374;10.766;2023-01-23T02:47:37;108.00;;;16.50;;
3700;SDS011;1866;48.374;10.766;2023-01-23T02:50:04;103.63;;;15.35;;
3700;SDS011;1866;48.374;10.766;2023-01-23T02:52:31;112.50;;;16.67;;
3700;SDS011;1866;48.374;10.766;2023-01-23T02:54:58;108.50;;;17.13;;
3700;SDS011;1866;48.374;10.766;2023-01-23T02:57:25;111.88;;;16.52;;
3700;SDS011;1866;48.374;10.766;2023-01-23T02:59:51;110.97;;;18.52;;
3700;SDS011;1866;48.374;10.766;2023-01-23T03:02:37;112.03;;;17.27;;
3700;SDS011;1866;48.374;10.766;2023-01-23T03:05:05;109.60;;;17.00;;
3700;SDS011;1866;48.374;10.766;2023-01-23T03:07:32;112.35;;;17.30;;
3700;SDS011;1866;48.374;10.766;2023-01-23T03:09:59;111.70;;;16.75;;
3700;SDS011;1866;48.374;10.766;2023-01-23T03:12:26;112.18;;;17.80;;
3700;SDS011;1866;48.374;10.766;2023-01-23T03:14:53;109.00;;;16.50;;
3700;SDS011;1866;48.374;10.766;2023-01-23T03:17:20;109.50;;;16.52;;
3700;SDS011;1866;48.374;10.766;2023-01-23T03:19:49;108.18;;;16.33;;
3700;SDS011;1866;48.374;10.766;2023-01-23T03:22:16;108.90;;;16.88;;
3700;SDS011;1866;48.374;10.766;2023-01-23T03:24:43;108.63;;;18.50;;
3700;SDS011;1866;48.374;10.766;2023-01-23T03:27:09;105.45;;;17.10;;
3700;SDS011;1866;48.374;10.766;2023-01-23T03:29:36;112.10;;;19.50;;
3700;SDS011;1866;48.374;10.766;2023-01-23T03:32:21;114.30;;;16.42;;
3700;SDS011;1866;48.374;10.766;2023-01-23T03:34:51;108.32;;;17.70;;
3700;SDS011;1866;48.374;10.766;2023-01-23T03:37:18;107.50;;;18.02;;
3700;SDS011;1866;48.374;10.766;2023-01-23T03:39:45;108.97;;;18.20;;
3700;SDS011;1866;48.374;10.766;2023-01-23T03:42:32;107.57;;;16.45;;
3700;SDS011;1866;48.374;10.766;2023-01-23T03:44:59;104.25;;;16.52;;
3700;SDS011;1866;48.374;10.766;2023-01-23T03:47:26;105.53;;;17.25;;
3700;SDS011;1866;48.374;10.766;2023-01-23T03:49:54;105.65;;;15.75;;
3700;SDS011;1866;48.374;10.766;2023-01-23T03:52:21;114.28;;;16.67;;
3700;SDS011;1866;48.374;10.766;2023-01-23T03:54:48;105.50;;;15.63;;
3700;SDS011;1866;48.374;10.766;2023-01-23T03:57:15;105.50;;;15.60;;
3700;SDS011;1866;48.374;10.766;2023-01-23T03:59:42;106.55;;;16.80;;
3700;SDS011;1866;48.374;10.766;2023-01-23T04:02:09;110.10;;;14.98;;
3700;SDS011;1866;48.374;10.766;2023-01-23T04:04:36;104.22;;;15.45;;
3700;SDS011;1866;48.374;10.766;2023-01-23T04:07:04;110.43;;;17.58;;
3700;SDS011;1866;48.374;10.766;2023-01-23T04:09:32;107.80;;;17.77;;
3700;SDS011;1866;48.374;10.766;2023-01-23T04:11:59;108.53;;;16.40;;
3700;SDS011;1866;48.374;10.766;2023-01-23T04:14:26;110.13;;;17.10;;
3700;SDS011;1866;48.374;10.766;2023-01-23T04:16:59;117.60;;;17.15;;
3700;SDS011;1866;48.374;10.766;2023-01-23T04:19:26;104.55;;;16.85;;
3700;SDS011;1866;48.374;10.766;2023-01-23T04:21:52;110.95;;;18.58;;
3700;SDS011;1866;48.374;10.766;2023-01-23T04:24:21;112.18;;;16.95;;
3700;SDS011;1866;48.374;10.766;2023-01-23T04:26:48;106.78;;;18.45;;
3700;SDS011;1866;48.374;10.766;2023-01-23T04:29:15;111.07;;;18.25;;
3700;SDS011;1866;48.374;10.766;2023-01-23T04:31:43;108.63;;;18.30;;
3700;SDS011;1866;48.374;10.766;2023-01-23T04:34:09;105.05;;;17.85;;
3700;SDS011;1866;48.374;10.766;2023-01-23T04:36:37;103.65;;;17.30;;
3700;SDS011;1866;48.374;10.766;2023-01-23T04:39:03;108.18;;;16.80;;
3700;SDS011;1866;48.374;10.766;2023-01-23T04:41:32;105.78;;;16.88;;
3700;SDS011;1866;48.374;10.766;2023-01-23T04:43:59;110.15;;;16.90;;
3700;SDS011;1866;48.374;10.766;2023-01-23T04:46:44;108.65;;;18.08;;
3700;SDS011;1866;48.374;10.766;2023-01-23T04:49:11;114.35;;;18.48;;
3700;SDS011;1866;48.374;10.766;2023-01-23T04:51:38;114.43;;;19.45;;
3700;SDS011;1866;48.374;10.766;2023-01-23T04:54:04;107.43;;;17.75;;
3700;SDS011;1866;48.374;10.766;2023-01-23T04:56:33;111.90;;;18.55;;
3700;SDS011;1866;48.374;10.766;2023-01-23T04:59:00;111.63;;;17.40;;
3700;SDS011;1866;48.374;10.766;2023-01-23T05:01:26;105.13;;;17.23;;
3700;SDS011;1866;48.374;10.766;2023-01-23T05:03:53;107.63;;;18.10;;
3700;SDS011;1866;48.374;10.766;2023-01-23T05:06:20;107.25;;;18.77;;
3700;SDS011;1866;48.374;10.766;2023-01-23T05:08:47;113.40;;;19.45;;
3700;SDS011;1866;48.374;10.766;2023-01-23T05:11:14;106.72;;;17.50;;
3700;SDS011;1866;48.374;10.766;2023-01-23T05:13:42;113.82;;;18.25;;
3700;SDS011;1866;48.374;10.766;2023-01-23T05:16:09;119.53;;;18.90;;
3700;SDS011;1866;48.374;10.766;2023-01-23T05:18:36;107.75;;;17.25;;
3700;SDS011;1866;48.374;10.766;2023-01-23T05:21:03;114.53;;;19.45;;
3700;SDS011;1866;48.374;10.766;2023-01-23T05:23:30;111.07;;;17.58;;
3700;SDS011;1866;48.374;10.766;2023-01-23T05:25:56;118.28;;;18.52;;
3700;SDS011;1866;48.374;10.766;2023-01-23T05:28:24;111.20;;;17.90;;
3700;SDS011;1866;48.374;10.766;2023-01-23T05:30:53;103.13;;;16.67;;
3700;SDS011;1866;48.374;10.766;2023-01-23T05:33:20;109.38;;;18.80;;
3700;SDS011;1866;48.374;10.766;2023-01-23T05:35:46;103.18;;;16.80;;
3700;SDS011;1866;48.374;10.766;2023-01-23T05:38:13;108.32;;;18.95;;
3700;SDS011;1866;48.374;10.766;2023-01-23T05:40:40;113.38;;;18.35;;
3700;SDS011;1866;48.374;10.766;2023-01-23T05:43:08;104.82;;;17.73;;
3700;SDS011;1866;48.374;10.766;2023-01-23T05:45:37;109.80;;;18.65;;
3700;SDS011;1866;48.374;10.766;2023-01-23T05:48:05;103.38;;;16.95;;
3700;SDS011;1866;48.374;10.766;2023-01-23T05:50:32;107.30;;;19.00;;
3700;SDS011;1866;48.374;10.766;2023-01-23T05:52:59;108.72;;;18.75;;
3700;SDS011;1866;48.374;10.766;2023-01-23T05:55:26;106.57;;;17.50;;
3700;SDS011;1866;48.374;10.766;2023-01-23T05:57:52;106.88;;;17.85;;
3700;SDS011;1866;48.374;10.766;2023-01-23T06:00:20;110.80;;;18.25;;
3700;SDS011;1866;48.374;10.766;2023-01-23T06:02:47;104.90;;;17.80;;
3700;SDS011;1866;48.374;10.766;2023-01-23T06:05:15;107.65;;;17.67;;
3700;SDS011;1866;48.374;10.766;2023-01-23T06:07:42;105.32;;;18.45;;
3700;SDS011;1866;48.374;10.766;2023-01-23T06:10:09;105.07;;;17.35;;
3700;SDS011;1866;48.374;10.766;2023-01-23T06:12:36;105.03;;;16.77;;
3700;SDS011;1866;48.374;10.766;2023-01-23T06:15:03;109.78;;;18.25;;
3700;SDS011;1866;48.374;10.766;2023-01-23T06:17:31;106.47;;;16.85;;
3700;SDS011;1866;48.374;10.766;2023-01-23T06:19:57;106.90;;;16.90;;
3700;SDS011;1866;48.374;10.766;2023-01-23T06:22:25;114.70;;;17.98;;
3700;SDS011;1866;48.374;10.766;2023-01-23T06:24:52;102.43;;;16.30;;
3700;SDS011;1866;48.374;10.766;2023-01-23T06:27:19;104.68;;;16.83;;
3700;SDS011;1866;48.374;10.766;2023-01-23T06:29:46;101.70;;;15.95;;
3700;SDS011;1866;48.374;10.766;2023-01-23T06:32:14;106.93;;;16.40;;
3700;SDS011;1866;48.374;10.766;2023-01-23T06:34:41;103.40;;;15.18;;
3700;SDS011;1866;48.374;10.766;2023-01-23T06:37:08;101.93;;;15.25;;
3700;SDS011;1866;48.374;10.766;2023-01-23T06:39:37;101.72;;;15.63;;
3700;SDS011;1866;48.374;10.766;2023-01-23T06:42:04;100.78;;;14.27;;
3700;SDS011;1866;48.374;10.766;2023-01-23T06:44:34;103.90;;;16.98;;
3700;SDS011;1866;48.374;10.766;2023-01-23T06:47:00;102.65;;;16.30;;
3700;SDS011;1866;48.374;10.766;2023-01-23T06:49:28;105.65;;;16.27;;
3700;SDS011;1866;48.374;10.766;2023-01-23T06:51:54;109.85;;;16.80;;
3700;SDS011;1866;48.374;10.766;2023-01-23T06:54:21;101.75;;;16.45;;
3700;SDS011;1866;48.374;10.766;2023-01-23T06:56:49;101.05;;;14.73;;
3700;SDS011;1866;48.374;10.766;2023-01-23T06:59:16;104.05;;;17.50;;
3700;SDS011;1866;48.374;10.766;2023-01-23T07:01:43;104.75;;;17.20;;
3700;SDS011;1866;48.374;10.766;2023-01-23T07:04:10;106.40;;;15.10;;
3700;SDS011;1866;48.374;10.766;2023-01-23T07:06:37;108.97;;;15.60;;
3700;SDS011;1866;48.374;10.766;2023-01-23T07:09:03;100.70;;;15.43;;
3700;SDS011;1866;48.374;10.766;2023-01-23T07:11:30;106.22;;;16.80;;
3700;SDS011;1866;48.374;10.766;2023-01-23T07:13:59;101.35;;;15.82;;
3700;SDS011;1866;48.374;10.766;2023-01-23T07:16:25;104.28;;;17.88;;
3700;SDS011;1866;48.374;10.766;2023-01-23T07:18:52;102.00;;;15.52;;
3700;SDS011;1866;48.374;10.766;2023-01-23T07:21:20;102.82;;;15.95;;
3700;SDS011;1866;48.374;10.766;2023-01-23T07:23:46;101.45;;;15.07;;
3700;SDS011;1866;48.374;10.766;2023-01-23T07:26:15;102.90;;;15.00;;
3700;SDS011;1866;48.374;10.766;2023-01-23T07:28:41;103.32;;;15.73;;
3700;SDS011;1866;48.374;10.766;2023-01-23T07:31:10;100.68;;;15.10;;
3700;SDS011;1866;48.374;10.766;2023-01-23T07:33:36;105.95;;;16.30;;
3700;SDS011;1866;48.374;10.766;2023-01-23T07:36:04;104.63;;;16.65;;
3700;SDS011;1866;48.374;10.766;2023-01-23T07:38:31;101.93;;;16.50;;
3700;SDS011;1866;48.374;10.766;2023-01-23T07:40:58;105.75;;;17.35;;
3700;SDS011;1866;48.374;10.766;2023-01-23T07:43:25;100.40;;;15.98;;
3700;SDS011;1866;48.374;10.766;2023-01-23T07:45:52;106.30;;;16.10;;
3700;SDS011;1866;48.374;10.766;2023-01-23T07:48:20;104.50;;;16.00;;
3700;SDS011;1866;48.374;10.766;2023-01-23T07:50:47;100.93;;;15.80;;
3700;SDS011;1866;48.374;10.766;2023-01-23T07:53:14;104.60;;;15.70;;
3700;SDS011;1866;48.374;10.766;2023-01-23T07:55:41;102.90;;;17.38;;
3700;SDS011;1866;48.374;10.766;2023-01-23T07:58:08;103.18;;;15.32;;
3700;SDS011;1866;48.374;10.766;2023-01-23T08:00:35;114.50;;;16.67;;
3700;SDS011;1866;48.374;10.766;2023-01-23T08:03:02;108.25;;;16.75;;
3700;SDS011;1866;48.374;10.766;2023-01-23T08:05:30;103.25;;;14.68;;
3700;SDS011;1866;48.374;10.766;2023-01-23T08:07:57;103.53;;;16.60;;
3700;SDS011;1866;48.374;10.766;2023-01-23T08:10:23;111.88;;;18.50;;
3700;SDS011;1866;48.374;10.766;2023-01-23T08:12:50;104.05;;;17.05;;
3700;SDS011;1866;48.374;10.766;2023-01-23T08:15:17;104.35;;;17.10;;
3700;SDS011;1866;48.374;10.766;2023-01-23T08:17:44;107.00;;;17.85;;
3700;SDS011;1866;48.374;10.766;2023-01-23T08:20:11;107.70;;;17.98;;
3700;SDS011;1866;48.374;10.766;2023-01-23T08:22:40;109.28;;;18.92;;
3700;SDS011;1866;48.374;10.766;2023-01-23T08:25:07;106.82;;;17.50;;
3700;SDS011;1866;48.374;10.766;2023-01-23T08:27:34;103.47;;;16.95;;
3700;SDS011;1866;48.374;10.766;2023-01-23T08:30:01;108.40;;;16.88;;
3700;SDS011;1866;48.374;10.766;2023-01-23T08:32:28;103.15;;;15.80;;
3700;SDS011;1866;48.374;10.766;2023-01-23T08:34:55;106.10;;;17.27;;
3700;SDS011;1866;48.374;10.766;2023-01-23T08:37:21;108.40;;;17.83;;
3700;SDS011;1866;48.374;10.766;2023-01-23T08:39:49;103.72;;;15.10;;
3700;SDS011;1866;48.374;10.766;2023-01-23T08:42:16;108.68;;;17.92;;
3700;SDS011;1866;48.374;10.766;2023-01-23T08:44:43;110.13;;;16.27;;
3700;SDS011;1866;48.374;10.766;2023-01-23T08:47:10;104.28;;;17.27;;
3700;SDS011;1866;48.374;10.766;2023-01-23T08:49:37;107.30;;;17.10;;
3700;SDS011;1866;48.374;10.766;2023-01-23T08:52:04;105.13;;;17.27;;
3700;SDS011;1866;48.374;10.766;2023-01-23T08:54:30;107.35;;;17.88;;
3700;SDS011;1866;48.374;10.766;2023-01-23T08:56:58;105.28;;;17.05;;
3700;SDS011;1866;48.374;10.766;2023-01-23T08:59:25;105.93;;;17.10;;
3700;SDS011;1866;48.374;10.766;2023-01-23T09:01:53;109.30;;;15.85;;
3700;SDS011;1866;48.374;10.766;2023-01-23T09:04:20;114.95;;;17.15;;
3700;SDS011;1866;48.374;10.766;2023-01-23T09:06:47;107.00;;;16.75;;
3700;SDS011;1866;48.374;10.766;2023-01-23T09:09:14;114.95;;;16.58;;
3700;SDS011;1866;48.374;10.766;2023-01-23T09:11:42;105.78;;;17.25;;
3700;SDS011;1866;48.374;10.766;2023-01-23T09:14:12;104.60;;;16.80;;
3700;SDS011;1866;48.374;10.766;2023-01-23T09:16:39;103.80;;;17.15;;
3700;SDS011;1866;48.374;10.766;2023-01-23T09:19:06;107.15;;;17.60;;
3700;SDS011;1866;48.374;10.766;2023-01-23T09:21:36;106.82;;;16.30;;
3700;SDS011;1866;48.374;10.766;2023-01-23T09:24:04;105.03;;;16.65;;
3700;SDS011;1866;48.374;10.766;2023-01-23T09:26:31;105.45;;;16.40;;
3700;SDS011;1866;48.374;10.766;2023-01-23T09:28:59;102.38;;;16.08;;
3700;SDS011;1866;48.374;10.766;2023-01-23T09:31:28;101.25;;;15.10;;
3700;SDS011;1866;48.374;10.766;2023-01-23T09:33:54;103.65;;;15.30;;
3700;SDS011;1866;48.374;10.766;2023-01-23T09:36:21;109.68;;;15.93;;
3700;SDS011;1866;48.374;10.766;2023-01-23T09:38:49;106.18;;;15.52;;
3700;SDS011;1866;48.374;10.766;2023-01-23T09:41:16;108.20;;;17.05;;
3700;SDS011;1866;48.374;10.766;2023-01-23T09:43:48;108.72;;;17.55;;
3700;SDS011;1866;48.374;10.766;2023-01-23T09:46:20;121.72;;;18.27;;
3700;SDS011;1866;48.374;10.766;2023-01-23T09:48:54;113.03;;;16.67;;
3700;SDS011;1866;48.374;10.766;2023-01-23T09:51:28;104.85;;;16.70;;
3700;SDS011;1866;48.374;10.766;2023-01-23T09:54:03;108.40;;;16.17;;
3700;SDS011;1866;48.374;10.766;2023-01-23T09:56:40;105.50;;;16.73;;
3700;SDS011;1866;48.374;10.766;2023-01-23T09:59:11;108.45;;;16.55;;
3700;SDS011;1866;48.374;10.766;2023-01-23T10:01:41;106.57;;;15.93;;
3700;SDS011;1866;48.374;10.766;2023-01-23T10:04:10;105.18;;;16.55;;
3700;SDS011;1866;48.374;10.766;2023-01-23T10:07:06;106.47;;;16.95;;
3700;SDS011;1866;48.374;10.766;2023-01-23T10:09:48;109.82;;;16.77;;
3700;SDS011;1866;48.374;10.766;2023-01-23T10:12:28;111.93;;;17.75;;
3700;SDS011;1866;48.374;10.766;2023-01-23T10:15:11;109.18;;;16.85;;
3700;SDS011;1866;48.374;10.766;2023-01-23T10:17:46;111.30;;;16.33;;
3700;SDS011;1866;48.374;10.766;2023-01-23T10:20:26;108.88;;;16.77;;
3700;SDS011;1866;48.374;10.766;2023-01-23T10:23:10;107.63;;;16.60;;
3700;SDS011;1866;48.374;10.766;2023-01-23T10:25:54;105.75;;;16.15;;
3700;SDS011;1866;48.374;10.766;2023-01-23T10:28:24;103.80;;;15.20;;
3700;SDS011;1866;48.374;10.766;2023-01-23T10:30:59;105.40;;;15.98;;
3700;SDS011;1866;48.374;10.766;2023-01-23T10:33:32;108.90;;;16.42;;
3700;SDS011;1866;48.374;10.766;2023-01-23T10:36:06;105.63;;;15.95;;
3700;SDS011;1866;48.374;10.766;2023-01-23T10:38:43;111.68;;;16.00;;
3700;SDS011;1866;48.374;10.766;2023-01-23T10:41:14;110.05;;;18.02;;
3700;SDS011;1866;48.374;10.766;2023-01-23T10:43:45;105.88;;;16.08;;
3700;SDS011;1866;48.374;10.766;2023-01-23T10:46:14;106.72;;;16.95;;
3700;SDS011;1866;48.374;10.766;2023-01-23T10:48:44;114.45;;;16.02;;
3700;SDS011;1866;48.374;10.766;2023-01-23T10:54:12;107.30;;;14.60;;
3700;SDS011;1866;48.374;10.766;2023-01-23T10:56:51;105.40;;;15.15;;
3700;SDS011;1866;48.374;10.766;2023-01-23T10:59:26;108.35;;;15.73;;
3700;SDS011;1866;48.374;10.766;2023-01-23T11:01:58;105.35;;;15.15;;
3700;SDS011;1866;48.374;10.766;2023-01-23T11:04:28;103.32;;;15.20;;
3700;SDS011;1866;48.374;10.766;2023-01-23T11:07:03;106.30;;;14.98;;
3700;SDS011;1866;48.374;10.766;2023-01-23T11:09:32;107.47;;;15.00;;
3700;SDS011;1866;48.374;10.766;2023-01-23T11:12:14;110.38;;;15.77;;
3700;SDS011;1866;48.374;10.766;2023-01-23T11:14:43;110.55;;;15.65;;
3700;SDS011;1866;48.374;10.766;2023-01-23T11:17:14;111.35;;;14.55;;
3700;SDS011;1866;48.374;10.766;2023-01-23T11:19:47;109.22;;;15.45;;
3700;SDS011;1866;48.374;10.766;2023-01-23T11:22:24;103.65;;;14.52;;
3700;SDS011;1866;48.374;10.766;2023-01-23T11:24:54;109.13;;;14.80;;
3700;SDS011;1866;48.374;10.766;2023-01-23T11:27:22;105.65;;;15.43;;
3700;SDS011;1866;48.374;10.766;2023-01-23T11:29:57;112.13;;;14.95;;
3700;SDS011;1866;48.374;10.766;2023-01-23T11:32:46;108.57;;;14.88;;
3700;SDS011;1866;48.374;10.766;2023-01-23T11:35:21;105.47;;;13.82;;
3700;SDS011;1866;48.374;10.766;2023-01-23T11:37:54;101.28;;;13.02;;
3700;SDS011;1866;48.374;10.766;2023-01-23T11:40:23;108.00;;;13.95;;
3700;SDS011;1866;48.374;10.766;2023-01-23T11:42:50;107.38;;;15.27;;
3700;SDS011;1866;48.374;10.766;2023-01-23T11:45:21;109.07;;;15.48;;
3700;SDS011;1866;48.374;10.766;2023-01-23T11:48:13;107.85;;;15.25;;
3700;SDS011;1866;48.374;10.766;2023-01-23T11:50:57;104.90;;;14.05;;
3700;SDS011;1866;48.374;10.766;2023-01-23T11:53:32;108.78;;;14.48;;
3700;SDS011;1866;48.374;10.766;2023-01-23T11:56:06;106.78;;;14.75;;
3700;SDS011;1866;48.374;10.766;2023-01-23T12:01:59;104.93;;;14.02;;
3700;SDS011;1866;48.374;10.766;2023-01-23T12:07:31;106.82;;;14.32;;
3700;SDS011;1866;48.374;10.766;2023-01-23T12:10:07;106.70;;;15.38;;
3700;SDS011;1866;48.374;10.766;2023-01-23T12:12:46;106.75;;;15.27;;
3700;SDS011;1866;48.374;10.766;2023-01-23T12:15:27;104.15;;;14.15;;
3700;SDS011;1866;48.374;10.766;2023-01-23T12:18:01;108.20;;;15.15;;
3700;SDS011;1866;48.374;10.766;2023-01-23T12:20:38;105.57;;;14.30;;
3700;SDS011;1866;48.374;10.766;2023-01-23T12:23:20;107.22;;;14.50;;
3700;SDS011;1866;48.374;10.766;2023-01-23T12:25:54;105.13;;;14.45;;
3700;SDS011;1866;48.374;10.766;2023-01-23T12:28:31;110.15;;;15.70;;
3700;SDS011;1866;48.374;10.766;2023-01-23T12:31:17;115.95;;;15.77;;
3700;SDS011;1866;48.374;10.766;2023-01-23T12:34:02;109.30;;;14.23;;
3700;SDS011;1866;48.374;10.766;2023-01-23T12:36:54;107.47;;;15.18;;
3700;SDS011;1866;48.374;10.766;2023-01-23T12:42:27;106.70;;;14.48;;
3700;SDS011;1866;48.374;10.766;2023-01-23T12:44:58;107.55;;;15.57;;
3700;SDS011;1866;48.374;10.766;2023-01-23T12:47:32;109.75;;;16.20;;
3700;SDS011;1866;48.374;10.766;2023-01-23T12:50:04;105.57;;;14.88;;
3700;SDS011;1866;48.374;10.766;2023-01-23T12:52:42;111.57;;;15.63;;
3700;SDS011;1866;48.374;10.766;2023-01-23T12:55:14;107.50;;;15.60;;
3700;SDS011;1866;48.374;10.766;2023-01-23T12:57:47;101.88;;;13.90;;
3700;SDS011;1866;48.374;10.766;2023-01-23T13:00:21;109.93;;;15.48;;
3700;SDS011;1866;48.374;10.766;2023-01-23T13:03:08;108.95;;;15.40;;
3700;SDS011;1866;48.374;10.766;2023-01-23T13:05:46;107.65;;;14.88;;
3700;SDS011;1866;48.374;10.766;2023-01-23T13:08:28;106.93;;;15.43;;
3700;SDS011;1866;48.374;10.766;2023-01-23T13:11:01;105.78;;;15.25;;
3700;SDS011;1866;48.374;10.766;2023-01-23T13:13:51;106.78;;;15.02;;
3700;SDS011;1866;48.374;10.766;2023-01-23T13:16:18;104.07;;;14.95;;
3700;SDS011;1866;48.374;10.766;2023-01-23T13:18:53;103.88;;;13.70;;
3700;SDS011;1866;48.374;10.766;2023-01-23T13:21:39;104.50;;;14.77;;
3700;SDS011;1866;48.374;10.766;2023-01-23T13:24:35;106.20;;;15.30;;
3700;SDS011;1866;48.374;10.766;2023-01-23T13:27:36;111.20;;;15.45;;
3700;SDS011;1866;48.374;10.766;2023-01-23T13:36:24;110.85;;;14.75;;
3700;SDS011;1866;48.374;10.766;2023-01-23T13:39:19;111.07;;;15.45;;
3700;SDS011;1866;48.374;10.766;2023-01-23T13:41:49;103.28;;;13.40;;
3700;SDS011;1866;48.374;10.766;2023-01-23T13:44:21;102.70;;;13.30;;
3700;SDS011;1866;48.374;10.766;2023-01-23T13:47:01;101.63;;;13.65;;
3700;SDS011;1866;48.374;10.766;2023-01-23T13:50:05;100.97;;;13.20;;
3700;SDS011;1866;48.374;10.766;2023-01-23T13:52:37;105.38;;;13.65;;
3700;SDS011;1866;48.374;10.766;2023-01-23T13:55:24;106.40;;;14.18;;
3700;SDS011;1866;48.374;10.766;2023-01-23T13:58:13;103.32;;;12.75;;
3700;SDS011;1866;48.374;10.766;2023-01-23T14:00:44;104.53;;;13.05;;
3700;SDS011;1866;48.374;10.766;2023-01-23T14:03:37;104.25;;;14.30;;
3700;SDS011;1866;48.374;10.766;2023-01-23T14:06:30;104.88;;;13.55;;
3700;SDS011;1866;48.374;10.766;2023-01-23T14:08:58;103.97;;;13.77;;
3700;SDS011;1866;48.374;10.766;2023-01-23T14:11:30;105.55;;;13.85;;
3700;SDS011;1866;48.374;10.766;2023-01-23T14:14:02;115.68;;;13.80;;
3700;SDS011;1866;48.374;10.766;2023-01-23T14:16:47;105.65;;;14.30;;
3700;SDS011;1866;48.374;10.766;2023-01-23T14:19:21;105.85;;;13.40;;
3700;SDS011;1866;48.374;10.766;2023-01-23T14:21:51;113.70;;;13.90;;
3700;SDS011;1866;48.374;10.766;2023-01-23T14:24:20;105.30;;;14.18;;
3700;SDS011;1866;48.374;10.766;2023-01-23T14:26:49;104.80;;;13.50;;
3700;SDS011;1866;48.374;10.766;2023-01-23T14:29:18;105.60;;;13.75;;
3700;SDS011;1866;48.374;10.766;2023-01-23T14:31:46;102.28;;;12.50;;
3700;SDS011;1866;48.374;10.766;2023-01-23T14:34:15;105.95;;;13.23;;
3700;SDS011;1866;48.374;10.766;2023-01-23T14:36:45;101.72;;;12.02;;
3700;SDS011;1866;48.374;10.766;2023-01-23T14:39:15;101.63;;;11.80;;
3700;SDS011;1866;48.374;10.766;2023-01-23T14:41:45;104.13;;;12.70;;
3700;SDS011;1866;48.374;10.766;2023-01-23T14:44:16;104.93;;;12.43;;
3700;SDS011;1866;48.374;10.766;2023-01-23T14:46:45;101.75;;;12.65;;
3700;SDS011;1866;48.374;10.766;2023-01-23T14:49:19;99.40;;;11.75;;
3700;SDS011;1866;48.374;10.766;2023-01-23T14:51:55;103.72;;;12.10;;
3700;SDS011;1866;48.374;10.766;2023-01-23T14:54:24;101.50;;;11.98;;
3700;SDS011;1866;48.374;10.766;2023-01-23T14:56:51;105.60;;;12.95;;
3700;SDS011;1866;48.374;10.766;2023-01-23T14:59:22;102.30;;;12.60;;